Terminal Aerodrome Forecast
Issued by NWS

Home | Current Version | Previous Version | Text Only | Print | Product List | Glossary On
Versions: 1 2 3 4 5 6 7 8 9 10 11 12
000
FTAK31 PAFA 280520
TAFAGA
TAF
PAGA 280520Z 2806/2906 VRB05KT P6SM SCT100 SCT200
     FM281500 VRB05KT P6SM SCT050 BKN100 BKN200
     FM281800 09005KT P6SM BKN050 BKN100 OVC200
     FM282100 09005KT P6SM VCSH BKN050 BKN100 OVC200=

USA.gov is the U.S. government's official web portal to all federal, state and local government web resources and services.